Time;durP1;ratioP1;P1;durP2;ratioP2;P2;SDS_P1;SDS_P2;PMS_P1;PMS_P2;Temp;Humidity;BMP_temperature;BMP_pressure;BME280_temperature;BME280_humidity;BME280_pressure;Samples;Min_cycle;Max_cycle;Signal;HPM_P1;HPM_P2
2022/06/10 00:00:37;;;;;;;1.98;0.68;;;;;;;15.67;66.37;102074.09;5060740;27;96841;-33
2022/06/10 00:03:03;;;;;;;3.10;0.63;;;;;;;15.68;66.33;102072.25;5059721;27;101267;-33
2022/06/10 00:05:30;;;;;;;1.27;0.60;;;;;;;15.69;66.35;102074.03;5059179;27;100760;-33
2022/06/10 00:07:56;;;;;;;1.35;0.68;;;;;;;15.67;66.79;102068.63;5059643;27;96552;-33
2022/06/10 00:10:25;;;;;;;0.90;0.47;;;;;;;15.70;66.35;102065.72;5060220;27;96846;-33
2022/06/10 00:12:51;;;;;;;7.20;0.88;;;;;;;15.73;66.36;102078.34;5059625;27;100896;-33
2022/06/10 00:15:29;;;;;;;2.70;0.65;;;;;;;15.78;66.54;102072.56;5059655;27;100918;-33
2022/06/10 00:17:54;;;;;;;1.40;0.47;;;;;;;15.76;67.10;102075.41;5060156;27;96503;-33
2022/06/10 00:20:23;;;;;;;4.55;0.68;;;;;;;15.70;66.46;102065.72;5078569;27;96759;-33
2022/06/10 00:22:48;;;;;;;1.17;0.50;;;;;;;15.70;66.59;102070.34;5059584;27;101080;-33
2022/06/10 00:25:14;;;;;;;3.90;1.55;;;;;;;15.73;66.36;102070.16;5078414;27;98762;-33
2022/06/10 00:27:40;;;;;;;3.22;0.90;;;;;;;15.72;66.70;102062.91;5078190;27;96670;-33
2022/06/10 00:30:08;;;;;;;2.28;0.63;;;;;;;15.76;66.92;102072.69;5059668;27;96824;-33
2022/06/10 00:32:33;;;;;;;2.63;0.70;;;;;;;15.71;67.57;102058.44;5059151;27;102382;-33
2022/06/10 00:34:59;;;;;;;2.03;0.88;;;;;;;15.71;67.19;102059.31;5059405;27;100970;-33
2022/06/10 00:37:25;;;;;;;3.33;0.45;;;;;;;15.70;67.11;102054.81;5059616;27;96593;-33
2022/06/10 00:39:50;;;;;;;2.80;0.63;;;;;;;15.78;67.13;102064.38;5077991;27;96839;-33
2022/06/10 00:42:15;;;;;;;1.92;0.63;;;;;;;15.77;67.67;102059.91;5077635;27;99004;-33
2022/06/10 00:44:44;;;;;;;5.35;0.65;;;;;;;15.79;67.27;102067.00;5077477;27;99157;-33
2022/06/10 00:47:15;;;;;;;3.78;0.65;;;;;;;15.84;67.57;102072.19;5059589;27;96712;-33
2022/06/10 00:49:45;;;;;;;4.32;0.65;;;;;;;15.80;67.27;102059.69;5059929;27;96816;-33
2022/06/10 00:52:34;;;;;;;1.50;0.88;;;;;;;15.81;67.64;102067.78;5059301;27;100921;-33
2022/06/10 00:55:01;;;;;;;1.48;0.55;;;;;;;15.85;67.33;102073.94;5077604;27;97454;-33
2022/06/10 00:57:35;;;;;;;6.22;0.77;;;;;;;15.80;67.93;102070.63;5058925;27;96510;-33
2022/06/10 01:00:18;;;;;;;5.68;1.33;;;;;;;15.83;67.67;102074.03;5059529;27;96755;-33
2022/06/10 01:02:44;;;;;;;2.50;0.50;;;;;;;15.83;68.01;102073.19;5058998;27;100925;-33
2022/06/10 01:05:14;;;;;;;1.25;0.50;;;;;;;15.81;67.75;102076.00;5058585;27;100986;-34
2022/06/10 01:07:45;;;;;;;6.53;0.82;;;;;;;15.76;68.59;102066.34;5059266;27;96744;-33
2022/06/10 01:10:16;;;;;;;0.68;0.43;;;;;;;15.75;68.07;102070.91;5058341;27;96721;-33
2022/06/10 01:13:24;;;;;;;1.98;1.00;;;;;;;15.81;68.34;102081.47;5058814;27;101454;-33
2022/06/10 01:16:21;;;;;;;1.40;0.50;;;;;;;15.83;67.81;102082.25;5051212;27;100885;-33
2022/06/10 01:19:17;;;;;;;1.98;0.70;;;;;;;15.79;68.18;102063.41;5077573;27;96625;-33
2022/06/10 01:22:14;;;;;;;1.70;0.60;;;;;;;15.87;68.16;102077.44;5077927;27;96501;-33
2022/06/10 01:25:01;;;;;;;3.22;0.57;;;;;;;15.84;67.81;102073.06;5058213;27;100903;-33
2022/06/10 01:27:48;;;;;;;1.55;0.50;;;;;;;15.86;67.97;102070.25;5077372;27;97831;-33
2022/06/10 01:30:41;;;;;;;1.20;0.52;;;;;;;15.89;68.49;102070.03;5058781;27;96738;-33
2022/06/10 01:33:17;;;;;;;2.78;0.70;;;;;;;15.83;68.55;102062.25;5077535;27;96809;-33
2022/06/10 01:35:55;;;;;;;5.45;1.27;;;;;;;15.88;68.37;102068.28;5058273;27;101252;-33
2022/06/10 01:38:37;;;;;;;1.95;0.68;;;;;;;15.83;68.42;102065.84;5058657;27;100814;-33
2022/06/10 01:41:19;;;;;;;2.25;0.50;;;;;;;15.82;68.49;102071.41;5058764;27;96571;-33
2022/06/10 01:43:47;;;;;;;0.57;0.30;;;;;;;15.83;68.26;102060.38;5077818;27;96568;-33
2022/06/10 01:46:25;;;;;;;4.45;0.88;;;;;;;15.88;68.03;102062.81;5076900;27;97417;-33
2022/06/10 01:49:20;;;;;;;1.88;0.60;;;;;;;15.87;68.15;102064.69;5058383;27;100992;-33
2022/06/10 01:52:27;;;;;;;3.80;0.73;;;;;;;15.84;69.19;102053.06;5076895;27;96774;-33
2022/06/10 01:55:04;;;;;;;2.60;0.60;;;;;;;15.85;68.38;102063.00;5058722;27;96711;-33
2022/06/10 01:57:41;;;;;;;1.38;0.38;;;;;;;15.86;68.68;102065.63;5058267;27;100817;-33
2022/06/10 02:00:14;;;;;;;2.58;0.65;;;;;;;15.87;68.25;102061.94;5058142;27;100500;-33
2022/06/10 02:02:48;;;;;;;5.90;1.00;;;;;;;15.90;68.75;102074.53;5077182;27;96525;-33
2022/06/10 02:05:19;;;;;;;0.77;0.38;;;;;;;15.89;69.04;102075.50;5057773;27;96679;-33
2022/06/10 02:07:51;;;;;;;4.32;0.40;;;;;;;15.86;68.50;102075.69;5076350;27;99380;-33
2022/06/10 02:11:00;;;;;;;2.38;0.68;;;;;;;15.91;68.95;102071.69;5076970;27;97813;-33
2022/06/10 02:13:30;;;;;;;5.57;0.90;;;;;;;15.90;68.91;102074.53;5058009;27;96534;-33
2022/06/10 02:16:00;;;;;;;0.93;0.47;;;;;;;15.94;68.28;102078.81;5076622;27;96779;-33
2022/06/10 02:18:44;;;;;;;1.63;0.38;;;;;;;15.94;68.19;102073.34;5057244;27;101042;-33
2022/06/10 02:21:21;;;;;;;6.57;0.93;;;;;;;15.90;69.11;102083.59;5057859;27;101217;-33
2022/06/10 02:23:54;;;;;;;4.85;0.47;;;;;;;15.86;69.09;102075.69;5058175;27;96581;-33
2022/06/10 02:26:21;;;;;;;2.42;0.65;;;;;;;15.90;68.78;102080.88;5058070;27;96737;-33
2022/06/10 02:28:52;;;;;;;7.97;0.77;;;;;;;15.91;69.28;102087.22;5057380;27;101140;-33
2022/06/10 02:31:18;;;;;;;2.55;0.47;;;;;;;15.90;69.20;102088.19;5057723;27;100927;-33
2022/06/10 02:33:44;;;;;;;1.70;0.60;;;;;;;15.90;69.03;102080.00;5076204;27;96566;-33
2022/06/10 02:36:21;;;;;;;5.50;1.08;;;;;;;15.86;69.05;102067.50;5076595;27;96787;-33
2022/06/10 02:39:00;;;;;;;2.60;0.43;;;;;;;15.82;70.08;102082.34;5057597;27;101168;-33
2022/06/10 02:41:46;;;;;;;2.17;0.63;;;;;;;15.89;69.91;102086.44;5057524;27;101224;-33
2022/06/10 02:44:46;;;;;;;2.20;0.73;;;;;;;15.89;69.96;102091.88;5057413;27;96607;-33
2022/06/10 02:47:26;;;;;;;2.72;0.82;;;;;;;15.82;70.19;102085.06;5076360;27;96430;-33
2022/06/10 02:49:52;;;;;;;3.10;0.45;;;;;;;15.82;71.06;102090.53;5057268;27;101052;-33
2022/06/10 02:52:20;;;;;;;2.05;0.50;;;;;;;15.78;70.51;102089.88;5075906;27;97923;-33
2022/06/10 02:54:46;;;;;;;3.45;0.75;;;;;;;15.85;71.17;102098.53;5057716;27;96601;-33
2022/06/10 03:01:11;;;;;;;2.30;0.70;;;;;;;15.78;73.30;102091.69;5057568;27;96789;-33
2022/06/10 03:03:24;;;;;;;5.85;0.68;;;;;;;15.73;72.68;102097.47;5076201;27;96993;-33
2022/06/10 03:06:00;;;;;;;1.15;0.50;;;;;;;15.74;72.19;102098.34;5073641;27;96730;-33
2022/06/10 03:08:31;;;;;;;3.63;1.05;;;;;;;15.67;72.55;102095.94;5057119;27;96745;-33
2022/06/10 03:10:56;;;;;;;2.60;0.47;;;;;;;15.69;72.81;102102.22;5056647;27;100871;-33
2022/06/10 03:13:36;;;;;;;3.53;0.75;;;;;;;15.70;72.77;102098.53;5075539;27;97842;-33
2022/06/10 03:16:08;;;;;;;2.00;0.57;;;;;;;15.66;72.98;102080.56;5076048;27;96677;-33
2022/06/10 03:18:49;;;;;;;3.65;0.95;;;;;;;15.67;74.58;102100.53;5057486;27;96708;-33
2022/06/10 03:22:07;;;;;;;2.43;0.97;;;;;;;15.69;73.03;102098.59;5056987;27;101504;-33
2022/06/10 03:25:03;;;;;;;0.85;0.40;;;;;;;15.65;74.16;102100.63;5044189;27;100886;-33
2022/06/10 03:27:47;;;;;;;0.88;0.63;;;;;;;15.62;73.64;102111.75;5075792;27;96587;-33
2022/06/10 03:30:18;;;;;;;2.58;0.40;;;;;;;15.60;73.37;102099.19;5076141;27;96596;-33
2022/06/10 03:33:01;;;;;;;2.05;0.55;;;;;;;15.64;73.73;102101.63;5056641;27;101030;-33
2022/06/10 03:35:32;;;;;;;1.13;0.70;;;;;;;15.61;74.99;102110.03;5074839;27;97819;-34
2022/06/10 03:37:58;;;;;;;2.87;0.63;;;;;;;15.57;76.30;102102.97;5056592;27;96756;-33
2022/06/10 03:40:27;;;;;;;2.08;0.38;;;;;;;15.51;76.64;102096.03;5075523;27;96781;-33
2022/06/10 03:42:56;;;;;;;3.58;0.65;;;;;;;15.46;75.52;102095.44;5056488;27;100798;-33
2022/06/10 03:45:26;;;;;;;1.60;0.60;;;;;;;15.56;75.42;102095.75;5056673;27;100847;-33
2022/06/10 03:47:51;;;;;;;2.38;0.68;;;;;;;15.54;74.59;102086.78;5057068;27;96562;-33
2022/06/10 03:50:23;;;;;;;4.95;0.77;;;;;;;15.60;74.31;102089.13;5075151;27;96735;-33
2022/06/10 03:52:49;;;;;;;1.63;0.38;;;;;;;15.61;75.43;102088.16;5056456;27;100815;-33
2022/06/10 03:55:18;;;;;;;1.35;0.43;;;;;;;15.59;74.96;102100.13;5075156;27;99170;-33
2022/06/10 03:57:44;;;;;;;3.55;0.50;;;;;;;15.54;75.19;102095.00;5056689;27;96652;-33
2022/06/10 04:00:14;;;;;;;1.98;0.70;;;;;;;15.58;77.39;102103.84;5056842;27;96795;-33
2022/06/10 04:02:39;;;;;;;5.03;0.95;;;;;;;15.56;76.70;102106.66;5073949;27;100462;-33
2022/06/10 04:05:05;;;;;;;1.27;0.60;;;;;;;15.55;76.92;102107.66;5074691;27;97290;-34
2022/06/10 04:07:31;;;;;;;0.50;0.40;;;;;;;15.56;74.84;102100.34;5056643;27;96657;-33
2022/06/10 04:09:56;;;;;;;4.50;0.65;;;;;;;15.59;75.50;102100.13;5075231;27;96529;-33
2022/06/10 04:12:22;;;;;;;1.15;0.77;;;;;;;15.57;75.38;102102.97;5055517;27;117729;-33
2022/06/10 04:14:47;;;;;;;0.60;0.40;;;;;;;15.58;75.40;102099.25;5074509;27;99110;-33
2022/06/10 04:17:13;;;;;;;1.80;0.55;;;;;;;15.58;75.91;102096.53;5075132;27;96721;-33
2022/06/10 04:19:38;;;;;;;1.23;0.80;;;;;;;15.61;75.54;102101.81;5074907;27;103029;-33
2022/06/10 04:22:04;;;;;;;1.90;0.95;;;;;;;15.64;75.24;102104.34;5074783;27;98061;-33
2022/06/10 04:24:29;;;;;;;0.82;0.60;;;;;;;15.59;76.14;102097.41;5074739;27;97961;-33
2022/06/10 04:26:55;;;;;;;1.42;0.60;;;;;;;15.63;75.21;102109.91;5074555;27;96529;-33
2022/06/10 04:29:21;;;;;;;2.95;0.77;;;;;;;15.61;75.63;102098.19;5074918;27;96753;-33
2022/06/10 04:31:46;;;;;;;2.75;0.80;;;;;;;15.63;75.49;102107.16;5074414;27;97922;-33
2022/06/10 04:34:12;;;;;;;4.05;1.20;;;;;;;15.66;75.64;102099.69;5074700;27;97211;-33
2022/06/10 04:36:38;;;;;;;4.53;0.90;;;;;;;15.56;75.31;102095.75;5074424;27;96774;-33
2022/06/10 04:39:03;;;;;;;2.75;1.00;;;;;;;15.64;75.06;102109.81;5056338;27;96904;-33
2022/06/10 04:41:29;;;;;;;4.15;0.80;;;;;;;15.65;74.61;102108.81;5074722;27;97451;-33
2022/06/10 04:43:54;;;;;;;2.47;1.15;;;;;;;15.63;74.84;102105.31;5074469;27;98822;-33
2022/06/10 04:46:32;;;;;;;4.70;1.00;;;;;;;15.72;74.20;102117.56;5076340;27;96528;-33
2022/06/10 04:48:57;;;;;;;3.30;0.77;;;;;;;15.70;73.81;102108.56;5059610;27;96755;-33
2022/06/10 04:51:23;;;;;;;1.80;0.50;;;;;;;15.75;74.32;102106.44;5077123;27;99348;-33
2022/06/10 04:53:49;;;;;;;2.08;0.82;;;;;;;15.78;73.88;102108.09;5059219;27;101116;-33
2022/06/10 04:56:14;;;;;;;3.65;1.52;;;;;;;15.78;74.46;102106.25;5077797;27;96595;-33
2022/06/10 04:58:40;;;;;;;1.65;0.68;;;;;;;15.80;73.90;102103.41;5078113;27;96829;-33
2022/06/10 05:01:05;;;;;;;2.95;0.75;;;;;;;15.78;74.47;102094.41;5077747;27;97845;-33
2022/06/10 05:03:30;;;;;;;1.75;0.60;;;;;;;15.79;74.31;102102.53;5077591;27;97630;-33
2022/06/10 05:05:56;;;;;;;3.85;1.00;;;;;;;15.86;74.05;102111.22;5077576;27;96854;-33
2022/06/10 05:08:21;;;;;;;3.00;0.70;;;;;;;15.86;73.56;102101.16;5078195;27;96761;-33
2022/06/10 05:10:47;;;;;;;1.15;0.70;;;;;;;15.87;73.70;102102.03;5077577;27;97496;-33
2022/06/10 05:13:16;;;;;;;2.92;0.90;;;;;;;15.86;74.33;102108.50;5076911;27;99408;-33
2022/06/10 05:15:42;;;;;;;1.30;0.75;;;;;;;15.83;73.64;102104.09;5058713;27;96559;-33
2022/06/10 05:18:08;;;;;;;2.72;0.88;;;;;;;15.85;73.96;102109.44;5059143;27;96717;-33
2022/06/10 05:20:37;;;;;;;0.77;0.50;;;;;;;15.82;73.98;102094.13;5077435;27;97924;-33
2022/06/10 05:23:04;;;;;;;2.60;0.45;;;;;;;15.87;73.84;102102.94;5058928;27;100753;-33
2022/06/10 05:25:30;;;;;;;5.05;1.00;;;;;;;15.85;74.46;102090.31;5059035;27;96566;-33
2022/06/10 05:27:55;;;;;;;1.17;0.63;;;;;;;15.90;73.49;102097.28;5077475;27;96771;-33
2022/06/10 05:30:26;;;;;;;5.40;0.85;;;;;;;15.99;73.40;102109.44;5077090;27;96762;-33
2022/06/10 05:32:52;;;;;;;3.73;0.87;;;;;;;16.03;73.60;102110.13;5059012;27;101196;-33
2022/06/10 05:35:18;;;;;;;2.97;0.70;;;;;;;15.94;73.81;102092.47;5077687;27;96564;-33
2022/06/10 05:37:44;;;;;;;2.15;0.80;;;;;;;16.04;73.32;102109.16;5058789;27;96864;-33
2022/06/10 05:40:11;;;;;;;1.30;0.80;;;;;;;16.06;73.66;102104.47;5057969;27;100962;-33
2022/06/10 05:42:38;;;;;;;1.45;0.88;;;;;;;16.07;73.60;102112.59;5076671;27;97923;-33
2022/06/10 05:45:04;;;;;;;3.38;0.75;;;;;;;16.08;73.72;102110.72;5058859;27;96697;-33
2022/06/10 05:47:33;;;;;;;6.00;1.23;;;;;;;16.02;73.44;102106.53;5077138;27;96826;-33
2022/06/10 05:50:00;;;;;;;4.80;0.93;;;;;;;16.12;73.33;102115.03;5058258;27;101397;-33
2022/06/10 05:52:29;;;;;;;4.18;0.90;;;;;;;16.08;73.39;102111.59;5058257;27;100741;-33
2022/06/10 05:54:57;;;;;;;3.83;0.90;;;;;;;16.08;73.99;102111.59;5058418;27;96649;-33
2022/06/10 05:57:23;;;;;;;3.58;1.15;;;;;;;16.13;73.90;102125.84;5077030;27;96798;-33
2022/06/10 05:59:51;;;;;;;0.85;0.57;;;;;;;16.09;74.75;102123.44;5058139;27;101529;-33
2022/06/10 06:02:16;;;;;;;1.48;1.00;;;;;;;16.08;73.77;102108.84;5058083;27;100683;-33
2022/06/10 06:04:42;;;;;;;2.20;0.98;;;;;;;16.09;74.76;102116.09;5076325;27;96472;-33
2022/06/10 06:07:08;;;;;;;11.13;1.30;;;;;;;16.11;74.09;102125.09;5076715;27;96749;-33
2022/06/10 06:09:34;;;;;;;3.80;1.08;;;;;;;16.04;74.18;102115.53;5057787;27;100951;-33
2022/06/10 06:12:00;;;;;;;4.57;1.45;;;;;;;16.14;74.35;102129.47;5057821;27;100999;-33
2022/06/10 06:14:27;;;;;;;6.68;1.10;;;;;;;16.16;74.38;102134.81;5076484;27;96467;-33
2022/06/10 06:16:58;;;;;;;4.15;1.00;;;;;;;16.25;73.66;102140.56;5076760;27;96750;-33
2022/06/10 06:19:25;;;;;;;2.17;1.20;;;;;;;16.26;74.33;102152.41;5057991;27;100953;-33
2022/06/10 06:21:51;;;;;;;4.03;1.08;;;;;;;16.25;74.64;102135.09;5058121;27;101018;-33
2022/06/10 06:24:16;;;;;;;1.55;0.93;;;;;;;16.25;74.66;102136.97;5076543;27;97340;-33
2022/06/10 06:26:42;;;;;;;2.20;1.00;;;;;;;16.23;75.07;102134.34;5076369;27;96839;-33
2022/06/10 06:29:08;;;;;;;2.05;0.90;;;;;;;16.29;75.23;102146.72;5075357;27;99323;-33
2022/06/10 06:31:34;;;;;;;3.38;1.08;;;;;;;16.29;74.90;102144.88;5076121;27;99145;-33
2022/06/10 06:33:59;;;;;;;3.42;0.75;;;;;;;16.30;74.83;102134.81;5057916;27;96688;-33
2022/06/10 06:36:27;;;;;;;2.25;1.02;;;;;;;16.37;75.08;102147.09;5076178;27;96855;-33
2022/06/10 06:38:53;;;;;;;0.88;0.63;;;;;;;16.39;74.83;102139.66;5076089;27;97547;-33
2022/06/10 06:41:19;;;;;;;5.57;1.20;;;;;;;16.46;74.44;102131.94;5057557;27;100732;-33
2022/06/10 06:43:45;;;;;;;2.58;1.00;;;;;;;16.55;73.72;102140.41;5057926;27;96606;-33
2022/06/10 06:46:12;;;;;;;3.97;1.17;;;;;;;16.57;73.78;102140.34;5076732;27;96783;-33
2022/06/10 06:48:37;;;;;;;2.85;0.75;;;;;;;16.60;73.82;102136.50;5075624;27;99245;-33
2022/06/10 06:51:03;;;;;;;6.13;1.10;;;;;;;16.71;73.63;102142.16;5075930;27;98014;-33
2022/06/10 06:53:28;;;;;;;2.00;1.10;;;;;;;16.76;73.26;102149.06;5075618;27;96621;-33
2022/06/10 06:55:54;;;;;;;3.78;1.20;;;;;;;16.74;73.42;102151.03;5076041;27;96773;-33
2022/06/10 06:58:20;;;;;;;3.63;1.02;;;;;;;16.79;72.85;102150.75;5075545;27;103026;-33
2022/06/10 07:00:46;;;;;;;1.98;0.85;;;;;;;16.82;72.73;102142.31;5057324;27;100688;-33
2022/06/10 07:03:11;;;;;;;4.47;1.02;;;;;;;16.87;72.67;102156.56;5076091;27;96483;-33
2022/06/10 07:05:37;;;;;;;5.00;0.95;;;;;;;16.94;72.35;102160.66;5075496;27;97766;-33
2022/06/10 07:08:02;;;;;;;4.25;0.80;;;;;;;16.96;72.29;102155.09;5074294;27;106248;-33
2022/06/10 07:10:29;;;;;;;6.45;1.30;;;;;;;16.97;72.04;102148.63;5075852;27;98231;-33
2022/06/10 07:12:54;;;;;;;3.42;1.38;;;;;;;17.10;71.67;102156.91;5057172;27;96646;-33
2022/06/10 07:15:21;;;;;;;11.65;1.38;;;;;;;17.17;71.81;102159.09;5076061;27;96771;-33
2022/06/10 07:17:47;;;;;;;4.70;1.25;;;;;;;17.22;71.65;102153.31;5056398;27;99280;-33
2022/06/10 07:20:24;;;;;;;6.00;1.08;;;;;;;17.32;71.82;102162.63;5075414;27;98785;-33
2022/06/10 07:22:49;;;;;;;6.65;1.40;;;;;;;17.36;71.73;102163.31;5075843;27;96561;-33
2022/06/10 07:25:15;;;;;;;7.03;1.52;;;;;;;17.36;71.03;102158.72;5075755;27;96866;-33
2022/06/10 07:27:42;;;;;;;2.53;1.13;;;;;;;17.47;70.92;102166.19;5075343;27;97463;-33
2022/06/10 07:30:09;;;;;;;3.95;1.23;;;;;;;17.49;71.45;102172.41;5056862;27;101101;-33
2022/06/10 07:32:34;;;;;;;1.52;0.80;;;;;;;17.48;70.86;102161.59;5057169;27;96651;-33
2022/06/10 07:34:59;;;;;;;3.72;1.02;;;;;;;17.49;70.47;102163.31;5075822;27;96765;-33
2022/06/10 07:37:25;;;;;;;5.35;1.25;;;;;;;17.49;70.58;102164.19;5075265;27;97452;-33
2022/06/10 07:39:51;;;;;;;2.53;0.85;;;;;;;17.54;70.38;102167.53;5075263;27;97316;-33
2022/06/10 07:42:17;;;;;;;6.32;1.08;;;;;;;17.55;70.26;102157.44;5074853;27;96512;-33
2022/06/10 07:44:42;;;;;;;5.70;1.42;;;;;;;17.60;70.15;102164.34;5075442;27;96755;-33
2022/06/10 07:47:11;;;;;;;3.72;1.50;;;;;;;17.67;69.43;102166.66;5075604;27;96946;-33
2022/06/10 07:49:37;;;;;;;7.97;1.35;;;;;;;17.63;69.46;102165.97;5056373;27;100976;-33
2022/06/10 07:52:03;;;;;;;4.45;1.38;;;;;;;17.67;70.23;102156.56;5075383;27;96467;-33
2022/06/10 07:54:29;;;;;;;3.20;0.98;;;;;;;17.70;69.41;102166.44;5056875;27;96832;-33
2022/06/10 07:56:55;;;;;;;2.28;1.13;;;;;;;17.67;68.77;102159.31;5056412;27;100718;-33
2022/06/10 07:59:20;;;;;;;7.13;1.17;;;;;;;17.70;69.26;102170.03;5075131;27;99132;-33
2022/06/10 08:01:45;;;;;;;5.97;1.15;;;;;;;17.76;68.91;102169.63;5075364;27;96647;-33
2022/06/10 08:04:11;;;;;;;5.90;1.70;;;;;;;17.80;69.23;102167.53;5074702;27;100374;-33
2022/06/10 08:06:40;;;;;;;6.40;1.55;;;;;;;17.81;68.77;102161.97;5072886;27;98883;-33
2022/06/10 08:09:07;;;;;;;1.10;0.85;;;;;;;17.92;69.12;102165.81;5056160;27;100976;-33
2022/06/10 08:11:33;;;;;;;3.28;1.45;;;;;;;17.98;68.99;102168.13;5056632;27;96636;-33
2022/06/10 08:13:58;;;;;;;13.15;1.95;;;;;;;17.96;68.67;102168.22;5056431;27;96971;-33
2022/06/10 08:16:25;;;;;;;3.22;1.23;;;;;;;18.07;68.66;102172.03;5074492;27;99230;-33
2022/06/10 08:18:51;;;;;;;4.07;1.63;;;;;;;18.20;68.78;102171.06;5074377;27;98494;-33
2022/06/10 08:24:01;;;;;;;4.20;1.42;;;;;;;18.47;67.17;102164.53;5077440;27;96505;-33
2022/06/10 08:26:27;;;;;;;6.72;1.63;;;;;;;18.75;67.53;102167.97;5059696;27;99918;-33
2022/06/10 08:28:54;;;;;;;7.25;1.25;;;;;;;18.90;66.81;102161.34;5059655;27;100777;-33
2022/06/10 08:31:21;;;;;;;4.07;1.20;;;;;;;19.13;66.81;102158.72;5077726;27;96713;-33
2022/06/10 08:33:46;;;;;;;2.67;1.30;;;;;;;19.19;65.94;102166.50;5059844;27;97009;-33
2022/06/10 08:36:13;;;;;;;3.75;1.33;;;;;;;19.29;66.50;102168.41;5077768;27;99368;-33
2022/06/10 08:38:41;;;;;;;4.70;1.58;;;;;;;19.30;66.09;102164.66;5059459;27;100681;-33
2022/06/10 08:41:09;;;;;;;2.75;1.27;;;;;;;19.51;65.96;102172.22;5059793;27;96674;-33
2022/06/10 08:43:49;;;;;;;5.00;1.60;;;;;;;19.77;65.21;102164.69;5078142;27;96774;-33
2022/06/10 08:46:57;;;;;;;4.07;1.25;;;;;;;20.03;63.94;102159.00;5078160;27;97533;-33
2022/06/10 08:49:49;;;;;;;3.33;0.98;;;;;;;20.20;63.16;102161.22;5078389;27;97329;-33
2022/06/10 08:52:36;;;;;;;2.85;1.30;;;;;;;20.42;63.96;102165.84;5078094;27;96941;-33
2022/06/10 08:55:15;;;;;;;3.33;1.23;;;;;;;20.56;63.17;102170.25;5059674;27;96745;-33
2022/06/10 08:57:44;;;;;;;3.25;1.40;;;;;;;20.54;63.24;102150.19;5058767;27;100974;-33
2022/06/10 09:00:18;;;;;;;3.42;1.48;;;;;;;20.53;63.62;102168.59;5059314;27;101018;-33
2022/06/10 09:03:03;;;;;;;7.70;1.38;;;;;;;20.71;63.59;102151.56;5077564;27;96635;-33
2022/06/10 09:05:38;;;;;;;3.75;1.33;;;;;;;21.10;63.17;102158.34;5058758;27;96881;-33
2022/06/10 09:08:11;;;;;;;2.80;1.50;;;;;;;21.25;63.12;102156.16;5077714;27;98070;-33
2022/06/10 09:11:09;;;;;;;2.78;1.27;;;;;;;21.42;62.19;102151.97;5077657;27;97201;-33
2022/06/10 09:13:39;;;;;;;7.18;1.55;;;;;;;21.26;62.33;102165.28;5077459;27;96567;-33
2022/06/10 09:16:19;;;;;;;5.15;1.55;;;;;;;21.15;62.72;102155.19;5059500;27;96841;-33
2022/06/10 09:19:33;;;;;;;6.53;1.73;;;;;;;21.05;63.08;102177.16;5058957;27;100976;-33
2022/06/10 09:22:20;;;;;;;3.47;1.25;;;;;;;20.97;62.54;102174.16;5013851;28;98117;-33
2022/06/10 09:24:58;;;;;;;6.13;2.17;;;;;;;21.10;60.82;102176.78;4997000;28;96642;-33
2022/06/10 09:27:28;;;;;;;9.25;1.65;;;;;;;21.29;61.70;102176.06;5043825;27;96938;-34
2022/06/10 09:29:55;;;;;;;3.90;1.42;;;;;;;21.47;61.49;102174.50;5058496;27;104818;-33
2022/06/10 09:32:49;;;;;;;4.38;1.40;;;;;;;21.62;59.14;102164.03;5057984;27;100971;-33
2022/06/10 09:35:14;;;;;;;2.42;1.35;;;;;;;21.80;60.06;102167.91;5058870;27;96533;-33
2022/06/10 09:37:45;;;;;;;4.07;1.43;;;;;;;22.07;60.52;102171.97;5077346;27;96844;-33
2022/06/10 09:40:36;;;;;;;5.38;1.45;;;;;;;22.36;60.00;102169.41;5058492;27;100790;-33
2022/06/10 09:43:26;;;;;;;5.35;1.63;;;;;;;22.58;59.22;102170.19;5077470;27;99388;-33
2022/06/10 09:46:16;;;;;;;6.45;1.35;;;;;;;22.67;58.58;102159.19;5058790;27;96579;-33
2022/06/10 09:49:00;;;;;;;8.05;1.63;;;;;;;22.86;58.16;102163.00;5058856;27;96757;-33
2022/06/10 09:51:44;;;;;;;6.40;1.77;;;;;;;22.96;56.93;102169.41;5057788;27;100990;-33
2022/06/10 09:54:42;;;;;;;3.97;2.10;;;;;;;22.65;57.64;102166.72;5058409;27;101460;-33
2022/06/10 09:57:35;;;;;;;4.43;1.50;;;;;;;22.88;57.18;102172.91;5077278;27;96498;-33
2022/06/10 10:00:03;;;;;;;4.03;1.33;;;;;;;22.97;58.32;102164.75;5077015;27;96607;-33
2022/06/10 10:03:06;;;;;;;7.03;1.48;;;;;;;22.67;58.07;102174.88;5076481;27;99690;-33
2022/06/10 10:05:41;;;;;;;4.38;1.50;;;;;;;22.48;58.64;102182.09;5064029;27;98067;-33
2022/06/10 10:08:20;;;;;;;3.22;1.27;;;;;;;22.18;59.39;102180.16;5076833;27;96444;-33
2022/06/10 10:10:55;;;;;;;1.52;0.90;;;;;;;21.92;59.20;102185.25;5077357;27;96761;-33
2022/06/10 10:13:57;;;;;;;4.18;1.05;;;;;;;21.60;59.84;102188.97;5057878;27;101075;-33
2022/06/10 10:16:40;;;;;;;3.17;1.02;;;;;;;21.51;60.26;102192.53;5058109;27;101155;-33
2022/06/10 10:19:08;;;;;;;2.88;1.27;;;;;;;21.63;60.58;102187.81;5076070;27;96600;-33
2022/06/10 10:21:39;;;;;;;4.88;1.20;;;;;;;21.49;60.13;102189.03;5076867;27;96787;-34
2022/06/10 10:24:13;;;;;;;5.00;1.83;;;;;;;21.48;60.45;102191.94;5076633;27;97963;-33
2022/06/10 10:26:41;;;;;;;4.22;1.05;;;;;;;21.44;60.77;102184.94;5057760;27;100548;-33
2022/06/10 10:29:19;;;;;;;2.97;1.10;;;;;;;21.46;59.71;102175.50;5057883;27;96612;-33
2022/06/10 10:31:49;;;;;;;3.50;1.20;;;;;;;21.74;59.19;102185.00;5058053;27;96772;-33
2022/06/10 10:34:22;;;;;;;5.20;1.25;;;;;;;22.09;58.99;102171.84;5057559;27;100500;-33
2022/06/10 10:36:52;;;;;;;7.03;1.40;;;;;;;22.24;58.63;102184.31;5057742;27;100759;-33
2022/06/10 10:39:31;;;;;;;5.63;1.60;;;;;;;22.21;59.71;102179.06;5058044;27;96688;-33
2022/06/10 10:42:01;;;;;;;4.97;1.35;;;;;;;22.32;59.28;102170.69;5076419;27;96682;-33
2022/06/10 10:44:30;;;;;;;1.58;0.93;;;;;;;22.51;58.96;102182.81;5074139;27;99457;-34
2022/06/10 10:47:13;;;;;;;4.68;1.40;;;;;;;22.56;57.86;102181.38;5057390;27;100785;-33
2022/06/10 10:49:48;;;;;;;3.55;1.52;;;;;;;22.43;58.37;102175.25;5057757;27;96661;-33
2022/06/10 10:52:34;;;;;;;4.72;1.63;;;;;;;22.31;57.91;102184.63;5057810;27;96724;-33
2022/06/10 10:55:03;;;;;;;2.85;1.67;;;;;;;22.14;59.05;102175.94;5057291;27;100864;-34
2022/06/10 10:57:37;;;;;;;3.10;1.33;;;;;;;22.08;59.35;102176.50;5057199;27;100934;-33
2022/06/10 11:00:15;;;;;;;3.95;1.40;;;;;;;22.09;59.64;102175.47;5057405;27;96552;-33
2022/06/10 11:02:55;;;;;;;4.22;1.70;;;;;;;22.29;58.65;102170.97;5057990;27;96817;-33
2022/06/10 11:05:35;;;;;;;4.15;1.85;;;;;;;22.68;58.41;102171.97;5075431;27;98068;-33
2022/06/10 11:08:21;;;;;;;2.90;2.00;;;;;;;22.73;58.25;102179.81;5075811;27;98180;-33
2022/06/10 11:10:52;;;;;;;4.38;1.85;;;;;;;22.55;58.36;102179.66;5056830;27;96647;-33
2022/06/10 11:13:30;;;;;;;5.68;2.20;;;;;;;22.34;58.73;102179.69;5057042;27;96849;-33
2022/06/10 11:16:15;;;;;;;3.60;2.00;;;;;;;22.44;58.21;102169.56;5056951;27;100766;-33
2022/06/10 11:18:41;;;;;;;4.07;1.73;;;;;;;22.51;58.56;102177.31;5075888;27;97292;-33
2022/06/10 11:21:07;;;;;;;3.67;1.85;;;;;;;22.48;59.39;102179.31;5057380;27;96735;-33
2022/06/10 11:23:32;;;;;;;4.15;2.05;;;;;;;22.33;59.63;102177.94;5075765;27;96853;-33
2022/06/10 11:26:09;;;;;;;4.90;2.05;;;;;;;22.56;58.94;102175.84;5075561;27;97471;-33
2022/06/10 11:28:41;;;;;;;3.13;1.58;;;;;;;22.50;59.21;102178.28;5075309;27;98670;-33
2022/06/10 11:31:40;;;;;;;5.40;2.28;;;;;;;22.51;58.56;102169.00;5057095;27;96664;-34
2022/06/10 11:34:16;;;;;;;6.25;2.45;;;;;;;22.26;58.29;102172.13;5063330;27;96813;-33
2022/06/10 11:36:48;;;;;;;5.40;2.40;;;;;;;22.39;59.44;102176.53;5056026;27;100974;-34
2022/06/10 11:39:33;;;;;;;6.97;2.88;;;;;;;22.76;59.32;102168.47;5056776;27;100994;-33
2022/06/10 11:42:07;;;;;;;4.93;2.42;;;;;;;23.22;58.10;102169.75;5075365;27;96577;-34
2022/06/10 11:44:54;;;;;;;4.68;2.63;;;;;;;23.45;58.00;102173.09;5075753;27;96581;-34
2022/06/10 11:47:27;;;;;;;5.05;2.42;;;;;;;23.78;57.48;102165.34;5073723;27;97546;-34
2022/06/10 11:49:59;;;;;;;5.80;2.20;;;;;;;23.66;56.76;102185.88;5056568;27;100925;-33
2022/06/10 11:52:47;;;;;;;4.20;2.03;;;;;;;23.09;54.96;102177.44;5075260;27;96607;-34